Time;durP1;ratioP1;P1;durP2;ratioP2;P2;SDS_P1;SDS_P2;PMS_P1;PMS_P2;Temp;Humidity;BMP_temperature;BMP_pressure;BME280_temperature;BME280_humidity;BME280_pressure;Samples;Min_cycle;Max_cycle;Signal;HPM_P1;HPM_P2
2022/11/22 00:01:47;;;;;;;18.75;13.63;;;;;;;3.67;100.00;161527.91;5032599;28;20044;-61
2022/11/22 00:04:13;;;;;;;19.70;13.77;;;;;;;3.67;100.00;161527.91;5034039;28;20021;-61
2022/11/22 00:06:38;;;;;;;19.73;15.88;;;;;;;3.70;100.00;161534.63;5033867;28;20101;-61
2022/11/22 00:09:03;;;;;;;18.20;14.23;;;;;;;3.71;100.00;161537.31;5032356;28;20038;-61
2022/11/22 00:11:29;;;;;;;17.33;11.85;;;;;;;3.69;100.00;161533.25;5033834;28;20026;-61
2022/11/22 00:13:54;;;;;;;17.92;12.85;;;;;;;3.67;100.00;161527.91;5031972;28;20103;-61
2022/11/22 00:16:19;;;;;;;18.33;12.77;;;;;;;3.63;100.00;161518.50;5033661;28;20040;-61
2022/11/22 00:18:45;;;;;;;26.20;14.70;;;;;;;3.65;100.00;161523.84;5032209;28;20496;-61
2022/11/22 00:21:10;;;;;;;20.27;15.10;;;;;;;3.68;100.00;161529.25;5033714;28;20531;-61
2022/11/22 00:23:35;;;;;;;23.80;13.73;;;;;;;3.67;100.00;161527.91;5032407;28;20038;-61
2022/11/22 00:26:01;;;;;;;17.08;13.70;;;;;;;3.72;100.00;161541.34;5033243;28;20033;-61
2022/11/22 00:28:26;;;;;;;25.17;15.27;;;;;;;3.72;100.00;161541.34;5026650;28;20049;-61
2022/11/22 00:30:51;;;;;;;19.88;14.93;;;;;;;3.74;100.00;161545.34;5031981;28;20395;-60
2022/11/22 00:33:17;;;;;;;18.48;13.52;;;;;;;3.77;100.00;161554.75;5033372;28;20029;-61
2022/11/22 00:35:44;;;;;;;27.42;14.85;;;;;;;3.78;100.00;161557.44;5032939;28;20017;-61
2022/11/22 00:38:10;;;;;;;18.73;13.15;;;;;;;3.83;100.00;161568.22;5031946;28;20072;-61
2022/11/22 00:40:35;;;;;;;28.35;16.33;;;;;;;3.84;100.00;161570.88;5033541;28;20029;-61
2022/11/22 00:43:01;;;;;;;18.23;12.57;;;;;;;3.85;100.00;161573.56;5031360;28;20492;-61
2022/11/22 00:45:26;;;;;;;25.38;15.07;;;;;;;3.86;100.00;161577.63;5033152;28;20021;-61
2022/11/22 00:47:51;;;;;;;19.05;13.15;;;;;;;3.89;100.00;161584.34;5031657;28;20052;-62
2022/11/22 00:50:17;;;;;;;24.25;12.52;;;;;;;3.94;100.00;161599.16;5032987;28;20040;-62
2022/11/22 00:52:42;;;;;;;20.05;11.48;;;;;;;3.98;100.00;161608.53;5031524;28;20037;-62
2022/11/22 00:55:07;;;;;;;17.17;12.15;;;;;;;4.01;100.00;161616.59;5033091;28;20052;-62
2022/11/22 00:57:33;;;;;;;31.35;15.07;;;;;;;4.06;100.00;161630.00;5031133;28;20049;-62
2022/11/22 00:59:58;;;;;;;19.90;12.68;;;;;;;4.07;100.00;161632.69;5032322;28;20025;-61
2022/11/22 01:02:23;;;;;;;27.35;12.07;;;;;;;4.09;100.00;161638.09;5030739;28;20040;-61
2022/11/22 01:04:49;;;;;;;22.08;11.50;;;;;;;4.15;100.00;161652.88;5032425;28;20499;-61
2022/11/22 01:07:14;;;;;;;24.67;12.48;;;;;;;4.17;100.00;161656.91;5031333;28;20049;-61
2022/11/22 01:09:39;;;;;;;14.55;11.48;;;;;;;4.22;100.00;161670.34;5033003;28;20025;-61
2022/11/22 01:12:05;;;;;;;15.55;11.27;;;;;;;4.26;100.00;161681.13;5030782;28;20072;-61
2022/11/22 01:14:30;;;;;;;22.73;11.57;;;;;;;4.19;100.00;161663.63;5032654;28;20029;-61
2022/11/22 01:16:56;;;;;;;21.67;11.45;;;;;;;4.28;100.00;161686.50;5030765;28;20096;-61
2022/11/22 01:19:21;;;;;;;15.40;10.38;;;;;;;4.28;100.00;161686.50;5032539;28;20044;-61
2022/11/22 01:21:46;;;;;;;11.85;9.90;;;;;;;4.27;100.00;161683.81;5031124;28;20033;-61
2022/11/22 01:24:12;;;;;;;15.68;10.23;;;;;;;4.25;100.00;161678.41;5032698;28;20469;-61
2022/11/22 01:26:37;;;;;;;19.42;11.32;;;;;;;4.27;100.00;161683.81;5030580;28;20459;-60
2022/11/22 01:29:03;;;;;;;15.27;10.75;;;;;;;4.28;100.00;161687.81;5032276;28;20028;-60
2022/11/22 01:31:29;;;;;;;13.45;10.20;;;;;;;4.28;100.00;161686.50;5031159;28;20048;-60
2022/11/22 01:33:54;;;;;;;29.30;11.07;;;;;;;4.31;100.00;161693.22;5032036;28;20384;-60
2022/11/22 01:36:20;;;;;;;13.38;10.18;;;;;;;4.33;100.00;161699.94;5030678;28;20559;-60
2022/11/22 01:38:45;;;;;;;15.52;9.73;;;;;;;4.34;100.00;161702.63;5032170;28;20500;-60
2022/11/22 01:41:10;;;;;;;23.63;10.27;;;;;;;4.36;100.00;161706.66;5030688;28;20033;-60
2022/11/22 01:43:36;;;;;;;23.40;13.18;;;;;;;4.35;100.00;161705.31;5032211;28;20057;-60
2022/11/22 01:46:28;;;;;;;15.18;10.07;;;;;;;4.44;100.00;161156.81;5030356;28;20029;-60
2022/11/22 01:49:13;;;;;;;20.83;10.93;;;;;;;4.44;100.00;160759.03;5028517;28;20427;-60
2022/11/22 01:51:45;;;;;;;12.52;9.50;;;;;;;4.46;100.00;160260.16;5030944;28;20172;-60
2022/11/22 01:54:16;;;;;;;28.70;10.52;;;;;;;4.50;100.00;159717.38;5032402;28;20108;-60
2022/11/22 01:56:45;;;;;;;18.02;10.75;;;;;;;4.50;100.00;159509.69;5030113;28;20880;-60
2022/11/22 01:59:15;;;;;;;10.98;9.70;;;;;;;4.51;100.00;158901.56;5031942;28;20029;-60
2022/11/22 02:01:41;;;;;;;15.77;10.02;;;;;;;4.48;100.00;158813.06;5030544;28;20136;-60
2022/11/22 02:04:09;;;;;;;18.70;10.20;;;;;;;4.48;100.00;157979.84;5031762;28;20029;-61
2022/11/22 02:07:03;;;;;;;15.90;11.13;;;;;;;4.54;100.00;156142.25;5030005;28;20471;-60
2022/11/22 02:09:29;;;;;;;16.88;9.73;;;;;;;4.47;100.00;155871.66;5032047;28;20084;-60
2022/11/22 02:11:59;;;;;;;15.13;8.82;;;;;;;4.55;100.00;154065.97;5029647;28;20392;-60
2022/11/22 02:14:26;;;;;;;21.65;9.57;;;;;;;4.57;100.00;153023.09;5031643;28;20037;-60
2022/11/22 02:16:51;;;;;;;13.25;9.38;;;;;;;4.58;100.00;152328.38;5029878;28;20044;-60
2022/11/22 02:19:40;;;;;;;23.10;11.52;;;;;;;4.63;100.00;151290.78;5031345;28;20021;-60
2022/11/22 02:22:21;;;;;;;13.35;9.85;;;;;;;4.58;100.00;151280.78;5029987;28;20120;-60
2022/11/22 02:24:55;;;;;;;17.48;11.77;;;;;;;4.57;100.00;151277.03;5031047;28;20097;-60
2022/11/22 02:27:22;;;;;;;14.82;11.43;;;;;;;4.57;100.00;150580.03;5024603;28;20111;-61
2022/11/22 02:29:47;;;;;;;17.30;10.52;;;;;;;4.64;100.00;149547.75;5031335;28;20079;-61
2022/11/22 02:32:13;;;;;;;12.60;9.52;;;;;;;4.63;100.00;149546.56;5029613;28;20042;-61
2022/11/22 02:34:48;;;;;;;18.15;11.65;;;;;;;4.58;100.00;150232.19;5031835;28;20025;-61
2022/11/22 02:37:19;;;;;;;17.20;11.35;;;;;;;4.59;100.00;150234.69;5029855;28;20044;-60
2022/11/22 02:39:50;;;;;;;15.07;10.27;;;;;;;4.64;100.00;149549.03;5030436;28;20053;-61
2022/11/22 02:42:15;;;;;;;15.63;9.68;;;;;;;4.70;100.00;148167.84;5029791;28;20095;-61
2022/11/22 02:44:40;;;;;;;23.35;12.18;;;;;;;4.73;100.00;147826.22;5031170;28;20045;-62
2022/11/22 02:47:06;;;;;;;15.98;10.25;;;;;;;4.73;100.00;148175.19;5028798;28;20060;-61
2022/11/22 02:49:31;;;;;;;19.13;11.20;;;;;;;4.72;100.00;148869.50;5031312;28;20025;-62
2022/11/22 02:51:57;;;;;;;23.63;12.32;;;;;;;4.73;100.00;148524.16;5029471;28;20543;-61
2022/11/22 02:54:22;;;;;;;16.95;11.38;;;;;;;4.76;100.00;147833.59;5030531;28;20076;-61
2022/11/22 02:56:47;;;;;;;14.70;10.48;;;;;;;4.80;100.00;147143.06;5028838;28;20103;-61
2022/11/22 02:59:13;;;;;;;20.13;11.30;;;;;;;4.80;100.00;146445.25;5031335;28;20025;-61
2022/11/22 03:01:39;;;;;;;15.45;11.60;;;;;;;4.82;100.00;145753.63;5029277;28;20500;-61
2022/11/22 03:04:05;;;;;;;15.30;10.65;;;;;;;4.85;100.00;144365.72;5030794;28;20033;-61
2022/11/22 03:06:30;;;;;;;20.67;11.48;;;;;;;4.90;100.00;143330.38;5029401;28;20381;-61
2022/11/22 03:08:55;;;;;;;21.75;11.10;;;;;;;4.88;100.00;143325.63;5030785;28;20033;-61
2022/11/22 03:11:21;;;;;;;15.77;10.63;;;;;;;4.88;100.00;143325.63;5029290;28;20034;-61
2022/11/22 03:13:46;;;;;;;18.52;12.57;;;;;;;4.92;100.00;142637.84;5030695;28;20024;-61
2022/11/22 03:16:11;;;;;;;17.42;11.82;;;;;;;4.91;100.00;141938.34;5028991;28;20095;-60
2022/11/22 03:18:37;;;;;;;30.90;12.82;;;;;;;4.92;100.00;141592.16;5030549;28;20032;-61
2022/11/22 03:21:04;;;;;;;14.68;11.07;;;;;;;4.91;100.00;141590.94;5029118;28;20492;-59
2022/11/22 03:23:30;;;;;;;20.40;12.68;;;;;;;4.91;100.00;141241.28;5030900;28;20025;-60
2022/11/22 03:25:55;;;;;;;18.30;12.77;;;;;;;4.90;100.00;141587.44;5030464;28;20151;-59
2022/11/22 03:28:21;;;;;;;21.00;12.82;;;;;;;4.83;100.00;142966.38;5034957;28;20033;-60
2022/11/22 03:30:46;;;;;;;15.77;11.70;;;;;;;4.73;100.00;145035.59;5034535;28;20021;-59
2022/11/22 03:33:11;;;;;;;22.77;12.82;;;;;;;4.59;100.00;147791.94;5033032;28;20385;-59
2022/11/22 03:35:37;;;;;;;20.90;11.65;;;;;;;4.54;100.00;150571.28;5034644;28;20044;-59
2022/11/22 03:38:03;;;;;;;18.27;11.65;;;;;;;4.53;100.00;151616.09;5032493;28;20048;-59
2022/11/22 03:40:28;;;;;;;23.88;13.10;;;;;;;4.57;100.00;150578.81;5034472;28;20480;-59
2022/11/22 03:42:53;;;;;;;16.58;13.38;;;;;;;4.68;100.00;147116.22;5032842;28;20053;-59
2022/11/22 03:45:19;;;;;;;25.95;14.60;;;;;;;4.73;100.00;143988.44;5034676;28;20037;-59
2022/11/22 03:47:44;;;;;;;33.13;14.68;;;;;;;4.80;100.00;140868.34;5032072;28;20057;-59
2022/11/22 03:50:09;;;;;;;25.13;13.05;;;;;;;4.85;100.00;138440.59;5034605;28;20488;-59
2022/11/22 03:52:35;;;;;;;26.40;15.63;;;;;;;4.84;100.00;137045.69;5032812;28;20103;-59
2022/11/22 03:55:01;;;;;;;24.70;14.27;;;;;;;4.84;100.00;135653.53;5033746;28;20032;-59
2022/11/22 03:57:26;;;;;;;20.42;15.18;;;;;;;4.91;100.00;133929.50;5032320;28;20069;-59
2022/11/22 03:59:52;;;;;;;26.58;15.32;;;;;;;4.90;100.00;132537.19;5034159;28;20021;-61
2022/11/22 04:02:17;;;;;;;30.58;15.73;;;;;;;4.90;100.00;131494.06;5032493;28;20405;-61
2022/11/22 04:04:42;;;;;;;19.50;12.60;;;;;;;4.93;100.00;130804.19;5033910;28;20087;-61
2022/11/22 04:07:08;;;;;;;31.63;16.40;;;;;;;4.92;100.00;130454.41;5032305;28;20053;-61
2022/11/22 04:09:33;;;;;;;20.98;13.23;;;;;;;4.88;100.00;131140.97;5033631;28;20017;-61
2022/11/22 04:11:58;;;;;;;18.77;11.23;;;;;;;4.78;100.00;132510.91;5032268;28;20614;-61
2022/11/22 04:17:11;;;;;;;27.33;14.80;;;;;;;4.66;100.00;136311.25;5031865;28;20438;-61
2022/11/22 04:19:37;;;;;;;25.30;14.65;;;;;;;4.70;100.00;135972.34;5034074;28;20025;-62
2022/11/22 04:22:02;;;;;;;17.13;12.38;;;;;;;4.80;100.00;134253.03;5032091;28;20079;-62
2022/11/22 04:27:11;;;;;;;26.58;16.48;;;;;;;5.02;100.00;129780.72;5031640;28;20051;-61
2022/11/22 04:29:37;;;;;;;39.72;16.27;;;;;;;5.11;100.00;127365.09;5033483;28;20030;-61
2022/11/22 04:34:46;;;;;;;18.08;12.85;;;;;;;5.22;100.00;124262.97;5033350;28;20063;-62
2022/11/22 04:37:11;;;;;;;24.08;12.15;;;;;;;5.20;100.00;124257.88;5031757;28;20045;-62
2022/11/22 04:39:36;;;;;;;22.55;13.05;;;;;;;5.18;100.00;124601.00;5032799;28;20025;-62
2022/11/22 04:44:46;;;;;;;18.80;10.85;;;;;;;5.20;100.00;126342.75;5033130;28;20076;-62
2022/11/22 04:50:01;;;;;;;22.80;11.27;;;;;;;5.22;100.00;129126.03;5033262;28;20107;-61
2022/11/22 04:55:10;;;;;;;18.90;9.82;;;;;;;5.20;100.00;133295.41;5033471;28;20032;-60
2022/11/22 04:57:36;;;;;;;28.00;12.30;;;;;;;5.18;100.00;135379.34;5031380;28;20046;-61
2022/11/22 05:00:01;;;;;;;23.33;11.68;;;;;;;5.21;100.00;136431.78;5032921;28;20029;-61
2022/11/22 05:02:26;;;;;;;27.73;9.57;;;;;;;5.21;100.00;137823.91;5031283;28;20045;-61
2022/11/22 05:04:52;;;;;;;36.20;11.65;;;;;;;5.22;100.00;138523.00;5032840;28;20021;-62
2022/11/22 05:07:17;;;;;;;20.50;9.98;;;;;;;5.28;100.00;138885.22;5031230;28;20053;-62
2022/11/22 05:09:42;;;;;;;17.35;8.68;;;;;;;5.31;100.00;139588.03;5032213;28;20029;-62
2022/11/22 05:12:08;;;;;;;23.92;9.95;;;;;;;5.35;100.00;139945.88;5031356;28;20412;-65
2022/11/22 05:14:33;;;;;;;19.48;9.93;;;;;;;5.36;100.00;140995.38;5032598;28;20034;-60
2022/11/22 05:16:58;;;;;;;18.02;7.55;;;;;;;5.37;100.00;142741.72;5030027;28;20041;-60
2022/11/22 05:19:24;;;;;;;23.58;7.50;;;;;;;5.28;100.00;145162.94;5027441;28;20083;-60
2022/11/22 05:21:49;;;;;;;24.45;8.65;;;;;;;5.17;100.00;148627.59;5031595;28;20037;-63
2022/11/22 05:24:14;;;;;;;26.77;7.68;;;;;;;5.13;100.00;152461.03;5049175;28;20037;-59
2022/11/22 05:26:40;;;;;;;12.98;7.53;;;;;;;5.02;100.00;158370.50;5031215;28;20497;-58
2022/11/22 05:29:08;;;;;;;35.45;11.48;;;;;;;4.93;100.00;161377.09;5032694;28;20396;-59
2022/11/22 05:31:34;;;;;;;19.67;9.02;;;;;;;4.85;100.00;161834.38;5030912;28;20498;-59
2022/11/22 05:34:00;;;;;;;25.42;9.20;;;;;;;4.79;100.00;161818.25;5031898;28;20025;-59
2022/11/22 05:36:25;;;;;;;15.65;7.13;;;;;;;4.73;100.00;161804.75;5030748;28;20052;-58
2022/11/22 05:38:51;;;;;;;21.40;7.28;;;;;;;4.75;100.00;161808.84;5031714;28;20033;-59
2022/11/22 05:41:17;;;;;;;25.15;8.07;;;;;;;4.72;100.00;161802.13;5030481;28;20041;-59
2022/11/22 05:43:43;;;;;;;15.10;6.88;;;;;;;4.65;100.00;161783.28;5032117;28;20053;-58
2022/11/22 05:46:09;;;;;;;19.00;7.47;;;;;;;4.59;100.00;161767.13;5030499;28;20025;-58
2022/11/22 05:48:36;;;;;;;38.15;9.48;;;;;;;4.53;100.00;161752.38;5032087;28;20037;-59
2022/11/22 05:51:03;;;;;;;18.92;7.80;;;;;;;4.38;100.00;161712.03;5030513;28;20116;-59
2022/11/22 05:53:28;;;;;;;23.25;6.55;;;;;;;4.35;100.00;161705.31;5014440;28;20100;-59
2022/11/22 05:55:54;;;;;;;17.38;7.90;;;;;;;4.22;100.00;161670.34;5031761;28;20033;-59
2022/11/22 05:58:19;;;;;;;17.90;6.50;;;;;;;4.15;100.00;161651.50;5030605;28;20042;-59
2022/11/22 06:00:44;;;;;;;20.67;7.03;;;;;;;4.11;100.00;161643.47;5031428;28;20025;-59
2022/11/22 06:03:10;;;;;;;16.67;7.25;;;;;;;4.10;100.00;161640.78;5030543;28;20492;-59
2022/11/22 06:05:35;;;;;;;26.33;7.85;;;;;;;4.13;100.00;161647.50;5032129;28;20048;-58
2022/11/22 06:08:01;;;;;;;15.07;5.93;;;;;;;4.17;100.00;161656.91;5029773;28;20045;-59
2022/11/22 06:10:27;;;;;;;18.23;6.40;;;;;;;4.19;100.00;161662.31;5031768;28;20025;-59
2022/11/22 06:12:53;;;;;;;14.63;6.63;;;;;;;4.21;100.00;161667.63;5030063;28;20044;-59
2022/11/22 06:15:18;;;;;;;22.30;6.03;;;;;;;4.21;100.00;161293.25;5031391;28;20072;-59
2022/11/22 06:17:44;;;;;;;29.02;7.10;;;;;;;4.14;100.00;161650.19;5029891;28;20168;-59
2022/11/22 06:20:09;;;;;;;24.45;6.60;;;;;;;4.06;100.00;161630.00;5031593;28;20033;-59
2022/11/22 06:22:35;;;;;;;19.98;6.05;;;;;;;3.98;100.00;161608.53;5030008;28;20033;-58
2022/11/22 06:25:00;;;;;;;22.92;7.20;;;;;;;3.88;100.00;161581.66;5026025;28;20041;-58
2022/11/22 06:27:25;;;;;;;21.88;5.88;;;;;;;3.80;100.00;161562.84;5029489;28;20056;-59
2022/11/22 06:29:51;;;;;;;21.92;6.55;;;;;;;3.75;100.00;161549.41;5030825;28;20095;-59
2022/11/22 06:32:16;;;;;;;23.58;8.50;;;;;;;3.72;100.00;161541.34;5029923;28;20429;-59
2022/11/22 06:34:42;;;;;;;19.65;7.88;;;;;;;3.69;100.00;161533.25;5031295;28;20051;-58
2022/11/22 06:37:07;;;;;;;18.45;6.18;;;;;;;3.71;100.00;161538.63;5029512;28;20448;-58
2022/11/22 06:39:32;;;;;;;21.00;6.65;;;;;;;3.67;100.00;161527.91;5031177;28;20044;-58
2022/11/22 06:41:58;;;;;;;34.88;7.00;;;;;;;3.65;100.00;161522.53;5029406;28;20021;-58
2022/11/22 06:44:23;;;;;;;20.25;7.70;;;;;;;3.59;100.00;161507.72;5030747;28;20053;-58
2022/11/22 06:46:49;;;;;;;23.02;8.02;;;;;;;3.46;100.00;161474.13;5029708;28;20021;-58
2022/11/22 06:49:14;;;;;;;18.75;6.20;;;;;;;3.52;100.00;161487.59;5031312;28;20504;-58
2022/11/22 06:51:39;;;;;;;22.75;8.10;;;;;;;3.51;100.00;161484.91;5030531;28;20499;-58
2022/11/22 06:54:05;;;;;;;16.05;6.10;;;;;;;3.46;100.00;161474.13;5029290;28;20451;-58
2022/11/22 06:56:35;;;;;;;24.10;8.43;;;;;;;3.44;100.00;161468.81;5031103;28;20030;-58
2022/11/22 06:59:02;;;;;;;21.75;7.28;;;;;;;3.44;100.00;161468.81;5028679;28;20527;-59
2022/11/22 07:01:28;;;;;;;16.27;6.20;;;;;;;3.35;100.00;161443.28;5029989;28;20491;-58
2022/11/22 07:03:56;;;;;;;19.95;6.65;;;;;;;3.33;100.00;161439.22;5029148;28;20068;-58
2022/11/22 07:06:23;;;;;;;21.35;8.43;;;;;;;3.34;100.00;161441.91;5030832;28;20029;-58
2022/11/22 07:08:49;;;;;;;20.85;8.00;;;;;;;3.36;100.00;161093.91;5029035;28;20037;-58
2022/11/22 07:11:17;;;;;;;24.00;9.27;;;;;;;3.38;100.00;160312.06;5030756;28;20491;-58
2022/11/22 07:13:43;;;;;;;22.67;9.38;;;;;;;3.40;100.00;159392.50;5028815;28;20558;-58
2022/11/22 07:16:11;;;;;;;25.42;8.27;;;;;;;3.45;100.00;157763.78;5030790;28;20026;-58
2022/11/22 07:18:37;;;;;;;27.05;7.82;;;;;;;3.37;100.00;156641.34;5029164;28;20045;-58
2022/11/22 07:21:05;;;;;;;33.72;8.20;;;;;;;3.36;100.00;157192.13;5027414;28;20424;-59
2022/11/22 07:23:31;;;;;;;23.42;7.82;;;;;;;3.36;100.00;157391.16;5029006;28;20124;-59
2022/11/22 07:25:56;;;;;;;29.42;7.50;;;;;;;3.35;100.00;156538.00;5030786;28;20029;-59
2022/11/22 07:28:22;;;;;;;14.60;7.30;;;;;;;3.41;100.00;155690.97;5028719;28;20649;-58
2022/11/22 07:30:47;;;;;;;15.38;6.13;;;;;;;3.40;100.00;155744.19;5030195;28;20037;-59
2022/11/22 07:33:13;;;;;;;19.15;6.28;;;;;;;3.40;100.00;155699.28;5028902;28;20099;-58
2022/11/22 07:35:38;;;;;;;24.33;9.07;;;;;;;3.36;100.00;156809.16;5012428;28;20047;-59
2022/11/22 07:38:03;;;;;;;15.73;6.90;;;;;;;3.34;100.00;157511.34;5028577;28;20038;-58
2022/11/22 07:40:29;;;;;;;21.60;7.20;;;;;;;3.31;100.00;158296.91;5030327;28;20022;-58
2022/11/22 07:42:54;;;;;;;23.77;7.43;;;;;;;3.30;100.00;158842.38;5028214;28;20148;-59
2022/11/22 07:45:20;;;;;;;28.85;9.68;;;;;;;3.29;100.00;158452.53;5030201;28;20025;-58
2022/11/22 07:47:45;;;;;;;29.50;12.73;;;;;;;3.31;100.00;158497.28;5024594;28;20049;-60
2022/11/22 07:50:11;;;;;;;21.00;5.80;;;;;;;3.40;100.00;157630.66;5030385;28;20469;-60
2022/11/22 07:52:36;;;;;;;25.45;8.18;;;;;;;3.40;100.00;157456.16;5028622;28;20041;-59
2022/11/22 07:55:02;;;;;;;23.85;7.07;;;;;;;3.41;100.00;157742.34;5029775;28;20029;-59
2022/11/22 07:57:28;;;;;;;33.85;11.43;;;;;;;3.42;100.00;158107.69;5028713;28;20060;-59
2022/11/22 07:59:53;;;;;;;19.67;7.65;;;;;;;3.37;100.00;158190.00;5029599;28;20021;-60
2022/11/22 08:02:18;;;;;;;27.23;7.50;;;;;;;3.44;100.00;158522.06;5028654;28;20048;-59
2022/11/22 08:04:44;;;;;;;22.35;9.13;;;;;;;3.49;100.00;158914.41;5030181;28;20025;-60
2022/11/22 08:07:09;;;;;;;32.75;9.73;;;;;;;3.59;100.00;158616.25;5027971;28;20041;-60
2022/11/22 08:09:35;;;;;;;29.38;7.82;;;;;;;3.61;100.00;159008.97;5030214;28;20035;-60
2022/11/22 08:12:01;;;;;;;21.77;7.20;;;;;;;3.66;100.00;159325.09;5030549;28;20044;-60
2022/11/22 08:14:26;;;;;;;18.65;6.38;;;;;;;3.73;100.00;159635.69;5033477;28;20030;-60
2022/11/22 08:16:52;;;;;;;25.73;8.77;;;;;;;3.80;100.00;159976.38;5032065;28;20029;-60
2022/11/22 08:19:18;;;;;;;25.05;7.20;;;;;;;3.88;100.00;160617.59;5033795;28;20079;-59
2022/11/22 08:21:44;;;;;;;16.75;5.93;;;;;;;3.96;100.00;161048.66;5031782;28;20045;-59
2022/11/22 08:24:09;;;;;;;20.13;9.07;;;;;;;4.06;100.00;161630.00;5034039;28;20028;-60
2022/11/22 08:26:35;;;;;;;33.75;8.35;;;;;;;4.19;100.00;161662.31;5032407;28;20438;-60
2022/11/22 08:29:04;;;;;;;23.25;9.00;;;;;;;4.27;100.00;161683.81;5032851;28;20025;-60
2022/11/22 08:31:30;;;;;;;23.30;9.48;;;;;;;4.43;100.00;161725.47;5032315;28;20040;-59
2022/11/22 08:33:55;;;;;;;29.67;7.72;;;;;;;4.65;100.00;161783.28;5033608;28;20021;-60
2022/11/22 08:36:21;;;;;;;12.65;4.72;;;;;;;4.98;100.00;161868.00;5031736;28;20034;-59
2022/11/22 08:38:46;;;;;;;18.15;5.63;;;;;;;5.25;100.00;161939.25;5033167;28;20090;-60
2022/11/22 08:41:12;;;;;;;22.02;6.70;;;;;;;5.19;100.00;161923.13;5032335;28;20037;-60
2022/11/22 08:43:37;;;;;;;15.20;6.78;;;;;;;5.08;100.00;161896.25;5032809;28;20041;-60
2022/11/22 08:46:03;;;;;;;13.77;6.50;;;;;;;5.11;100.00;161902.97;5031667;28;20025;-59
2022/11/22 08:48:31;;;;;;;29.35;9.93;;;;;;;5.24;100.00;161936.59;5033599;28;20026;-60
2022/11/22 08:50:59;;;;;;;15.75;7.57;;;;;;;5.40;100.00;161979.59;5031136;28;20099;-60
2022/11/22 08:53:25;;;;;;;23.77;6.13;;;;;;;5.79;100.00;162079.16;5033247;28;20075;-60
2022/11/22 08:55:51;;;;;;;11.10;4.30;;;;;;;6.22;100.00;162192.25;5033252;28;20029;-60
2022/11/22 08:58:16;;;;;;;17.20;5.07;;;;;;;6.48;100.00;162259.59;5031377;28;20049;-60
2022/11/22 09:00:42;;;;;;;10.20;3.65;;;;;;;6.82;100.00;162349.78;5032740;28;20039;-60
2022/11/22 09:03:07;;;;;;;30.13;5.13;;;;;;;6.78;100.00;162337.66;5031523;28;20042;-60
2022/11/22 09:05:32;;;;;;;18.35;5.00;;;;;;;6.49;100.00;162262.28;5032754;28;20037;-60
2022/11/22 09:07:58;;;;;;;10.63;4.80;;;;;;;6.27;100.00;162204.38;5031166;28;20045;-60
2022/11/22 09:10:24;;;;;;;41.72;6.40;;;;;;;6.13;100.00;162168.06;5033210;28;20480;-60
2022/11/22 09:12:49;;;;;;;17.40;5.75;;;;;;;6.07;100.00;162151.94;5030748;28;20033;-60
2022/11/22 09:15:14;;;;;;;25.98;5.82;;;;;;;6.08;100.00;162155.94;5032780;28;20025;-60
2022/11/22 09:17:41;;;;;;;14.50;4.97;;;;;;;6.04;100.00;162145.16;5031280;28;20048;-60
2022/11/22 09:20:07;;;;;;;18.50;6.55;;;;;;;6.07;100.00;162151.94;5032150;28;20029;-60
2022/11/22 09:22:33;;;;;;;19.40;6.63;;;;;;;6.09;100.00;162157.28;5030761;28;20365;-60
2022/11/22 09:24:58;;;;;;;10.93;4.35;;;;;;;6.10;100.00;162161.34;5031917;28;20022;-60
2022/11/22 09:27:23;;;;;;;12.50;4.72;;;;;;;6.15;100.00;162173.41;5030563;28;20033;-60
2022/11/22 09:29:49;;;;;;;16.77;5.15;;;;;;;6.08;100.00;162154.56;5032072;28;20029;-60
2022/11/22 09:32:14;;;;;;;9.85;6.05;;;;;;;6.09;100.00;162157.28;5031105;28;20045;-60
2022/11/22 09:34:40;;;;;;;15.70;4.63;;;;;;;6.08;100.00;162154.56;5032247;28;20029;-60
2022/11/22 09:37:05;;;;;;;10.52;3.90;;;;;;;6.08;100.00;162154.56;5025468;28;20496;-60
2022/11/22 09:39:31;;;;;;;19.73;5.95;;;;;;;6.09;100.00;162157.28;5032274;28;20542;-60
2022/11/22 09:42:21;;;;;;;8.75;4.63;;;;;;;6.21;100.00;162189.59;5030418;28;20430;-60
2022/11/22 09:45:01;;;;;;;14.90;6.38;;;;;;;6.33;100.00;162220.53;5032022;28;20054;-59
2022/11/22 09:47:41;;;;;;;10.38;4.82;;;;;;;6.48;100.00;162259.59;5030831;28;20099;-60
2022/11/22 09:50:29;;;;;;;14.02;4.15;;;;;;;6.85;100.00;162356.53;5032118;28;20033;-60
2022/11/22 09:53:01;;;;;;;27.83;7.13;;;;;;;7.18;100.00;162442.72;5030349;28;20400;-60
2022/11/22 09:55:37;;;;;;;20.45;5.97;;;;;;;7.59;100.00;162549.13;5031882;28;20112;-60
2022/11/22 09:58:12;;;;;;;13.20;5.80;;;;;;;8.13;100.00;162690.63;5029989;28;20519;-60
2022/11/22 10:00:41;;;;;;;20.65;4.75;;;;;;;8.36;100.00;162751.25;5031918;28;20021;-60
2022/11/22 10:03:17;;;;;;;13.18;4.45;;;;;;;8.05;100.00;162669.03;5030220;28;20046;-60
2022/11/22 10:05:48;;;;;;;21.73;6.40;;;;;;;7.53;100.00;162534.31;5031675;28;20392;-60
2022/11/22 10:08:28;;;;;;;10.32;4.32;;;;;;;7.13;100.00;162430.59;5029929;28;20455;-60
2022/11/22 10:10:57;;;;;;;14.68;5.70;;;;;;;7.13;100.00;162429.22;5030015;28;20465;-60
2022/11/22 10:13:27;;;;;;;;;;;;;;;7.21;100.00;162450.78;5032441;28;20095;-60
2022/11/22 10:15:55;;;;;;;15.00;4.82;;;;;;;7.23;100.00;162456.19;5029953;28;19909;-59
2022/11/22 10:18:48;;;;;;;5.90;3.10;;;;;;;7.12;100.00;162426.53;5031403;28;20025;-60
2022/11/22 10:21:14;;;;;;;13.20;4.25;;;;;;;7.15;100.00;162434.63;5030247;28;20045;-60
2022/11/22 10:23:44;;;;;;;12.25;4.43;;;;;;;7.15;100.00;162434.63;5031723;28;20025;-60
2022/11/22 10:26:31;;;;;;;13.23;5.00;;;;;;;7.15;100.00;162434.63;5029539;28;20040;-60
2022/11/22 10:29:15;;;;;;;11.23;4.28;;;;;;;7.19;100.00;162445.38;5031553;28;20084;-60
2022/11/22 10:31:52;;;;;;;12.60;4.68;;;;;;;7.10;100.00;162422.50;5030030;28;20088;-60
2022/11/22 10:34:31;;;;;;;25.25;6.40;;;;;;;7.17;100.00;162440.03;5030946;28;20017;-60
2022/11/22 10:37:27;;;;;;;24.65;6.03;;;;;;;7.15;100.00;162435.94;5029553;28;20116;-60
2022/11/22 10:40:08;;;;;;;11.35;4.75;;;;;;;7.16;100.00;162437.31;5031032;28;20032;-60
2022/11/22 10:43:04;;;;;;;7.57;3.58;;;;;;;7.07;100.00;162414.44;5029297;28;20048;-60
2022/11/22 10:45:45;;;;;;;11.85;4.97;;;;;;;7.05;100.00;162407.66;5027840;28;20734;-60
2022/11/22 10:48:27;;;;;;;10.10;3.78;;;;;;;7.07;100.00;162413.06;5028955;28;20052;-60
2022/11/22 10:51:05;;;;;;;25.27;7.80;;;;;;;7.15;100.00;162434.63;5029323;28;20025;-59
2022/11/22 10:53:46;;;;;;;14.82;5.13;;;;;;;7.18;100.00;162442.72;5030978;28;20024;-60
2022/11/22 10:56:36;;;;;;;18.83;4.68;;;;;;;7.17;100.00;162440.03;5029279;28;20053;-59
2022/11/22 10:59:48;;;;;;;9.45;3.72;;;;;;;7.16;100.00;162437.31;5030625;28;20236;-60
2022/11/22 11:02:52;;;;;;;8.55;4.10;;;;;;;7.17;100.00;162440.03;5029563;28;20412;-59
2022/11/22 11:05:24;;;;;;;11.13;4.53;;;;;;;7.23;100.00;162456.19;5029925;28;20054;-60
2022/11/22 11:07:51;;;;;;;14.07;4.05;;;;;;;7.30;100.00;162475.03;5029053;28;20144;-60
2022/11/22 11:10:32;;;;;;;12.80;3.65;;;;;;;7.38;100.00;162493.91;5030433;28;20033;-60
2022/11/22 11:13:01;;;;;;;6.85;2.85;;;;;;;7.38;100.00;162493.91;5027763;28;20049;-60
2022/11/22 11:15:48;;;;;;;4.90;3.15;;;;;;;7.41;100.00;162502.00;5028526;28;20029;-61
2022/11/22 11:18:18;;;;;;;11.18;5.03;;;;;;;7.61;100.00;162554.50;5028476;28;20041;-60
2022/11/22 11:20:46;;;;;;;7.63;3.17;;;;;;;7.75;100.00;162590.88;5029714;28;20036;-60
2022/11/22 11:23:12;;;;;;;10.13;3.40;;;;;;;7.74;100.00;162588.19;5027634;28;20049;-60
2022/11/22 11:25:41;;;;;;;9.43;2.83;;;;;;;7.74;100.00;162588.19;5029532;28;20025;-60
2022/11/22 11:28:12;;;;;;;7.93;3.65;;;;;;;7.71;100.00;162580.09;5028063;28;20041;-60
2022/11/22 11:31:07;;;;;;;7.30;4.22;;;;;;;7.80;100.00;162604.34;5029612;28;20021;-60
2022/11/22 11:33:37;;;;;;;6.78;3.30;;;;;;;7.73;100.00;162585.47;5022269;28;20037;-60
2022/11/22 11:36:10;;;;;;;10.88;5.50;;;;;;;7.55;100.00;162539.72;5027763;28;20029;-59